createdAt,value
2019-02-23T00:01:54.402Z,98.08
2019-02-23T00:04:24.596Z,97.17
2019-02-23T00:07:06.405Z,96.70
2019-02-23T00:09:46.355Z,96.89
2019-02-23T00:12:35.503Z,97.26
2019-02-23T00:15:24.688Z,97.72
2019-02-23T00:18:13.890Z,98.39
2019-02-23T00:21:03.290Z,99.32
2019-02-23T00:23:52.631Z,99.70
2019-02-23T00:26:42.488Z,99.28
2019-02-23T00:29:31.961Z,99.68
2019-02-23T00:32:21.432Z,99.99
2019-02-23T00:35:11.024Z,99.90
2019-02-23T00:38:00.436Z,100.00
2019-02-23T00:40:49.623Z,100.00
2019-02-23T00:43:39.084Z,99.66
2019-02-23T00:46:28.234Z,99.48
2019-02-23T00:49:17.631Z,99.77
2019-02-23T00:52:07.102Z,99.86
2019-02-23T00:54:56.550Z,99.96
2019-02-23T00:57:38.052Z,100.00
2019-02-23T01:00:20.090Z,100.00
2019-02-23T01:03:02.109Z,100.00
2019-02-23T01:05:43.579Z,100.00
2019-02-23T01:08:25.490Z,100.00
2019-02-23T01:11:05.601Z,99.90
2019-02-23T01:13:55.195Z,99.93
2019-02-23T01:16:44.385Z,99.62
2019-02-23T01:19:33.797Z,99.17
2019-02-23T01:22:23.303Z,98.63
2019-02-23T01:24:53.454Z,98.76
2019-02-23T01:27:42.769Z,98.97
2019-02-23T01:30:13.157Z,98.88
2019-02-23T01:32:43.402Z,98.77
2019-02-23T01:35:32.861Z,99.24
2019-02-23T01:38:22.376Z,99.58
2019-02-23T01:41:11.938Z,99.39
2019-02-23T01:44:01.165Z,99.58
2019-02-23T01:46:31.326Z,99.92
2019-02-23T01:49:01.753Z,99.84
2019-02-23T01:51:51.061Z,99.62
2019-02-23T01:54:40.517Z,99.58
2019-02-23T01:57:30.002Z,99.79
2019-02-23T02:00:19.850Z,99.74
2019-02-23T02:03:09.075Z,99.80
2019-02-23T02:05:58.953Z,99.94
2019-02-23T02:08:48.462Z,100.00
2019-02-23T02:11:29.895Z,100.00
2019-02-23T02:14:09.953Z,100.00
2019-02-23T02:16:59.192Z,99.58
2019-02-23T02:19:48.434Z,99.03
2019-02-23T02:22:37.915Z,98.95
2019-02-23T02:25:27.863Z,99.43
2019-02-23T02:28:17.003Z,100.00
2019-02-23T02:31:06.513Z,100.00
2019-02-23T02:34:18.158Z,100.00
2019-02-23T02:37:07.675Z,100.00
2019-02-23T02:42:51.426Z,100.00
2019-02-23T02:45:40.902Z,100.00
2019-02-23T02:48:30.100Z,100.00
2019-02-23T02:51:19.525Z,100.00
2019-02-23T02:53:49.720Z,100.00
2019-02-23T02:56:39.181Z,99.98
2019-02-23T02:59:28.399Z,99.77
2019-02-23T03:02:09.848Z,99.50
2019-02-23T03:04:51.829Z,99.57
2019-02-23T03:07:22.031Z,98.78
2019-02-23T03:10:11.473Z,98.90
2019-02-23T03:12:53.154Z,98.30
2019-02-23T03:15:34.656Z,98.54
2019-02-23T03:18:04.796Z,98.73
2019-02-23T03:20:54.023Z,98.83
2019-02-23T03:23:43.246Z,98.94
2019-02-23T03:26:32.488Z,98.18
2019-02-23T03:29:22.325Z,97.69
2019-02-23T03:32:11.950Z,98.19
2019-02-23T03:35:01.308Z,99.72
2019-02-23T03:38:11.670Z,100.00
2019-02-23T03:41:01.576Z,99.84
2019-02-23T03:43:50.768Z,99.99
2019-02-23T03:46:40.270Z,100.00
2019-02-23T03:49:29.887Z,100.00
2019-02-23T03:52:00.039Z,100.00
2019-02-23T03:54:30.202Z,100.00
2019-02-23T03:57:00.336Z,100.00
2019-02-23T03:59:30.755Z,100.00
2019-02-23T04:02:19.976Z,100.00
2019-02-23T04:04:50.120Z,100.00
2019-02-23T04:07:39.547Z,100.00
2019-02-23T04:10:28.739Z,100.00
2019-02-23T04:12:58.909Z,100.00
2019-02-23T04:15:29.358Z,100.00
2019-02-23T04:18:18.738Z,100.00
2019-02-23T04:21:00.947Z,100.00
2019-02-23T04:23:40.067Z,100.00
2019-02-23T04:26:29.355Z,100.00
2019-02-23T04:28:59.713Z,100.00
2019-02-23T04:31:51.046Z,100.00
2019-02-23T04:34:22.081Z,100.00
2019-02-23T04:36:52.274Z,100.00
2019-02-23T04:39:41.957Z,100.00
2019-02-23T04:42:12.330Z,100.00
2019-02-23T04:45:01.548Z,100.00
2019-02-23T04:47:50.716Z,100.00
2019-02-23T04:50:20.923Z,100.00
2019-02-23T04:52:51.034Z,100.00
2019-02-23T04:55:21.586Z,100.00
2019-02-23T04:57:51.702Z,100.00
2019-02-23T05:00:21.892Z,100.00
2019-02-23T05:03:11.094Z,100.00
2019-02-23T05:06:00.642Z,100.00
2019-02-23T05:08:30.791Z,100.00
2019-02-23T05:11:00.922Z,100.00
2019-02-23T05:13:51.256Z,100.00
2019-02-23T05:16:32.773Z,100.00
2019-02-23T05:19:14.432Z,100.00
2019-02-23T05:21:56.544Z,100.00
2019-02-23T05:24:38.122Z,100.00
2019-02-23T05:27:08.423Z,100.00
2019-02-23T05:29:58.952Z,100.00
2019-02-23T05:32:48.574Z,100.00
2019-02-23T05:35:39.251Z,100.00
2019-02-23T05:38:09.401Z,100.00
2019-02-23T05:40:58.580Z,100.00
2019-02-23T05:43:47.874Z,100.00
2019-02-23T05:46:37.334Z,100.00
2019-02-23T05:49:07.440Z,100.00
2019-02-23T05:51:56.653Z,100.00
2019-02-23T05:54:46.181Z,100.00
2019-02-23T05:57:16.680Z,100.00
2019-02-23T05:59:46.857Z,100.00
2019-02-23T06:02:17.028Z,100.00
2019-02-23T06:05:06.780Z,100.00
2019-02-23T06:07:55.999Z,100.00
2019-02-23T06:10:26.291Z,100.00
2019-02-23T06:12:56.542Z,100.00
2019-02-23T06:15:28.533Z,100.00
2019-02-23T06:18:18.056Z,100.00
2019-02-23T06:21:08.538Z,100.00
2019-02-23T06:23:38.697Z,100.00
2019-02-23T06:26:28.285Z,100.00
2019-02-23T06:29:17.820Z,100.00
2019-02-23T06:31:47.920Z,100.00
2019-02-23T06:34:18.118Z,100.00
2019-02-23T06:36:48.186Z,100.00
2019-02-23T06:39:37.435Z,100.00
2019-02-23T06:42:27.016Z,100.00
2019-02-23T06:44:57.225Z,100.00
2019-02-23T06:47:27.462Z,100.00
2019-02-23T06:49:57.682Z,100.00
2019-02-23T06:52:47.221Z,100.00
2019-02-23T06:55:36.714Z,100.00
2019-02-23T06:58:06.976Z,100.00
2019-02-23T07:00:58.990Z,99.91
2019-02-23T07:03:48.266Z,99.42
2019-02-23T07:06:37.406Z,99.48
2019-02-23T07:09:08.885Z,99.85
2019-02-23T07:11:58.307Z,99.80
2019-02-23T07:14:48.893Z,99.98
2019-02-23T07:17:30.197Z,100.00
2019-02-23T07:20:11.725Z,100.00
2019-02-23T07:22:41.881Z,99.25
2019-02-23T07:25:31.068Z,98.87
2019-02-23T07:28:01.239Z,97.81
2019-02-23T07:30:31.537Z,96.78
2019-02-23T07:33:03.607Z,96.55
2019-02-23T07:35:33.930Z,95.20
2019-02-23T07:38:04.106Z,95.41
2019-02-23T07:40:34.335Z,94.97
2019-02-23T07:43:04.538Z,94.68
2019-02-23T07:45:34.880Z,94.56
2019-02-23T07:48:24.255Z,94.18
2019-02-23T07:51:16.555Z,93.90
2019-02-23T07:54:06.509Z,92.93
2019-02-23T07:56:36.685Z,92.10
2019-02-23T07:59:46.191Z,91.42
2019-02-23T08:02:16.468Z,90.85
2019-02-23T08:04:46.892Z,89.09
2019-02-23T08:07:17.261Z,88.99
2019-02-23T08:09:47.615Z,89.23
2019-02-23T08:12:37.051Z,89.02
2019-02-23T08:15:08.836Z,88.78
2019-02-23T08:17:58.347Z,87.00
2019-02-23T08:20:39.658Z,86.76
2019-02-23T08:23:10.207Z,85.77
2019-02-23T08:25:40.430Z,84.22
2019-02-23T08:28:10.656Z,84.63
2019-02-23T08:30:42.109Z,83.30
2019-02-23T08:33:14.016Z,81.20
2019-02-23T08:36:03.452Z,80.28
2019-02-23T08:38:33.637Z,80.58
2019-02-23T08:44:03.792Z,73.31
2019-02-23T08:46:36.055Z,67.61
2019-02-23T08:49:28.544Z,66.71
2019-02-23T08:52:00.870Z,67.79
2019-02-23T08:54:31.306Z,66.10
2019-02-23T08:57:01.797Z,67.86
2019-02-23T08:59:51.238Z,65.82
2019-02-23T09:02:40.801Z,64.68
2019-02-23T09:05:11.596Z,62.54
2019-02-23T09:08:01.004Z,62.55
2019-02-23T09:10:31.158Z,60.67
2019-02-23T09:13:01.485Z,58.19
2019-02-23T09:15:42.593Z,57.96
2019-02-23T09:18:12.733Z,57.18
2019-02-23T09:20:44.971Z,53.54
2019-02-23T09:23:15.125Z,49.76
2019-02-23T09:25:46.625Z,49.97
2019-02-23T09:28:17.052Z,47.22
2019-02-23T09:30:47.502Z,45.83
2019-02-23T09:33:17.740Z,43.45
2019-02-23T09:36:07.743Z,43.32
2019-02-23T09:38:38.498Z,43.86
2019-02-23T09:41:08.646Z,42.86
2019-02-23T09:43:39.107Z,44.63
2019-02-23T09:46:09.368Z,44.00
2019-02-23T09:48:39.556Z,44.10
2019-02-23T09:51:09.886Z,45.05
2019-02-23T09:53:59.105Z,45.58
2019-02-23T09:56:32.191Z,45.92
2019-02-23T09:59:02.420Z,46.67
2019-02-23T10:01:52.530Z,46.83
2019-02-23T10:04:22.725Z,45.79
2019-02-23T10:06:53.183Z,45.48
2019-02-23T10:09:25.103Z,44.13
2019-02-23T10:12:15.415Z,44.85
2019-02-23T10:14:45.725Z,44.26
2019-02-23T10:17:27.310Z,42.52
2019-02-23T10:19:58.546Z,41.79
2019-02-23T10:22:48.918Z,42.04
2019-02-23T10:25:38.189Z,42.01
2019-02-23T10:28:47.857Z,40.51
2019-02-23T10:31:37.784Z,38.72
2019-02-23T10:34:28.470Z,37.27
2019-02-23T10:37:17.640Z,36.67
2019-02-23T10:39:47.896Z,37.64
2019-02-23T10:42:37.459Z,38.28
2019-02-23T10:45:10.983Z,36.50
2019-02-23T10:47:45.195Z,36.54
2019-02-23T10:50:34.404Z,36.60
2019-02-23T10:53:05.984Z,37.37
2019-02-23T10:55:56.778Z,34.35
2019-02-23T10:58:27.297Z,33.98
2019-02-23T11:00:58.754Z,32.78
2019-02-23T11:03:48.160Z,33.34
2019-02-23T11:06:18.449Z,32.78
2019-02-23T11:08:51.438Z,32.70
2019-02-23T11:11:22.008Z,31.46
2019-02-23T11:13:52.461Z,31.49
2019-02-23T11:16:22.720Z,31.94
2019-02-23T11:18:53.230Z,32.12
2019-02-23T11:21:23.679Z,30.90
2019-02-23T11:23:54.186Z,30.80
2019-02-23T11:26:43.332Z,30.69
2019-02-23T11:29:13.588Z,30.43
2019-02-23T11:31:43.753Z,30.26
2019-02-23T11:34:14.260Z,31.02
2019-02-23T11:36:47.497Z,29.15
2019-02-23T11:39:17.844Z,28.07
2019-02-23T11:41:48.883Z,29.59
2019-02-23T11:44:19.388Z,28.85
2019-02-23T11:46:59.798Z,29.51
2019-02-23T11:49:41.000Z,27.52
2019-02-23T11:52:11.172Z,28.03
2019-02-23T11:54:44.096Z,28.74
2019-02-23T11:57:13.885Z,29.44
2019-02-23T12:00:03.171Z,26.79
2019-02-23T12:02:33.316Z,27.55
2019-02-23T12:05:22.613Z,26.97
2019-02-23T12:07:52.825Z,28.16
2019-02-23T12:10:23.275Z,27.41
2019-02-23T12:13:12.522Z,27.79
2019-02-23T12:16:01.936Z,27.43
2019-02-23T12:18:32.183Z,27.49
2019-02-23T12:21:02.412Z,26.56
2019-02-23T12:23:33.139Z,25.96
2019-02-23T12:26:03.339Z,25.86
2019-02-23T12:28:33.491Z,25.95
2019-02-23T12:31:03.733Z,24.97
2019-02-23T12:33:34.358Z,22.58
2019-02-23T12:36:04.559Z,22.76
2019-02-23T12:38:54.013Z,23.47
2019-02-23T12:41:24.249Z,21.19
2019-02-23T12:43:54.602Z,21.56
2019-02-23T12:46:26.077Z,21.33
2019-02-23T12:49:15.855Z,20.60
2019-02-23T12:54:46.489Z,22.26
2019-02-23T12:57:47.799Z,21.22
2019-02-23T13:00:55.988Z,20.02
2019-02-23T13:03:27.117Z,21.04
2019-02-23T13:05:58.901Z,19.76
2019-02-23T13:12:44.885Z,18.63
2019-02-23T13:15:41.123Z,19.08
2019-02-23T13:18:49.471Z,19.90
2019-02-23T13:21:45.827Z,18.17
2019-02-23T13:24:28.475Z,19.98
2019-02-23T13:27:04.938Z,18.62
2019-02-23T13:30:13.177Z,18.83
2019-02-23T13:33:21.385Z,18.73
2019-02-23T13:36:16.990Z,19.09
2019-02-23T13:39:28.272Z,19.50
2019-02-23T13:42:51.376Z,19.60
2019-02-23T13:46:11.462Z,20.21
2019-02-23T13:49:34.701Z,20.89
2019-02-23T13:52:42.814Z,19.65
2019-02-23T13:55:51.039Z,20.53
2019-02-23T13:58:59.555Z,20.18
2019-02-23T14:02:05.545Z,19.86
2019-02-23T14:05:05.097Z,19.20
2019-02-23T14:08:04.829Z,19.04
2019-02-23T14:13:46.387Z,20.54
2019-02-23T14:16:28.679Z,20.47
2019-02-23T14:19:33.799Z,20.65
2019-02-23T14:22:31.280Z,19.73
2019-02-23T14:25:39.494Z,20.80
2019-02-23T14:28:48.623Z,20.48
2019-02-23T14:31:56.826Z,19.48
2019-02-23T14:35:04.995Z,21.61
2019-02-23T14:38:13.437Z,19.90
2019-02-23T14:41:21.912Z,20.19
2019-02-23T14:44:30.001Z,20.90
2019-02-23T14:47:38.278Z,20.09
2019-02-23T14:50:50.076Z,19.37
2019-02-23T14:53:58.338Z,19.65
2019-02-23T14:57:10.694Z,21.23
2019-02-23T15:00:18.963Z,21.04
2019-02-23T15:03:29.417Z,19.87
2019-02-23T15:06:37.778Z,18.94
2019-02-23T15:09:35.659Z,19.46
2019-02-23T15:12:43.919Z,20.25
2019-02-23T15:15:25.662Z,21.13
2019-02-23T15:18:07.495Z,21.35
2019-02-23T15:21:00.989Z,20.95
2019-02-23T15:23:55.994Z,22.16
2019-02-23T15:27:04.379Z,22.14
2019-02-23T15:30:29.640Z,21.05
2019-02-23T15:33:12.379Z,22.56
2019-02-23T15:36:20.644Z,21.61
2019-02-23T15:39:16.779Z,21.69
2019-02-23T15:42:24.894Z,21.54
2019-02-23T15:45:17.983Z,21.85
2019-02-23T15:48:26.278Z,24.35
2019-02-23T15:51:34.602Z,25.31
2019-02-23T15:54:24.607Z,23.32
2019-02-23T15:56:54.811Z,23.99
2019-02-23T15:59:27.493Z,23.91
2019-02-23T16:02:17.261Z,24.51
2019-02-23T16:05:07.767Z,23.14
2019-02-23T16:07:38.011Z,24.87
2019-02-23T16:10:08.254Z,27.11
2019-02-23T16:12:38.551Z,26.24
2019-02-23T16:15:27.899Z,25.02
2019-02-23T16:17:59.078Z,24.34
2019-02-23T16:20:48.268Z,25.01
2019-02-23T16:23:18.635Z,25.94
2019-02-23T16:26:00.498Z,25.07
2019-02-23T16:28:56.529Z,25.23
2019-02-23T16:31:26.829Z,24.59
2019-02-23T16:33:56.995Z,24.94
2019-02-23T16:36:28.638Z,24.73
2019-02-23T16:39:32.661Z,24.57
2019-02-23T16:41:52.586Z,25.20
2019-02-23T16:44:42.259Z,26.58
2019-02-23T16:47:52.849Z,26.38
2019-02-23T16:50:42.086Z,26.08
2019-02-23T16:53:12.337Z,24.56
2019-02-23T16:56:01.871Z,25.50
2019-02-23T16:58:34.626Z,26.43
2019-02-23T17:01:04.795Z,28.07
2019-02-23T17:03:54.236Z,28.95
2019-02-23T17:06:24.524Z,29.09
2019-02-23T17:09:13.878Z,29.25
2019-02-23T17:11:44.101Z,29.78
2019-02-23T17:14:37.057Z,29.96
2019-02-23T17:17:18.671Z,29.62
2019-02-23T17:19:49.045Z,30.75
2019-02-23T17:22:38.500Z,29.79
2019-02-23T17:25:09.071Z,30.12
2019-02-23T17:27:58.461Z,29.86
2019-02-23T17:30:28.672Z,30.61
2019-02-23T17:33:18.338Z,30.09
2019-02-23T17:35:55.669Z,29.67
2019-02-23T17:38:28.707Z,29.83
2019-02-23T17:41:17.948Z,30.28
2019-02-23T17:44:08.123Z,30.49
2019-02-23T17:46:42.535Z,30.24
2019-02-23T17:49:32.055Z,30.54
2019-02-23T17:52:21.490Z,30.31
2019-02-23T17:54:52.141Z,30.48
2019-02-23T17:57:41.443Z,30.78
2019-02-23T18:00:30.955Z,31.03
2019-02-23T18:03:20.393Z,30.71
2019-02-23T18:06:09.632Z,30.70
2019-02-23T18:09:17.806Z,30.65
2019-02-23T18:12:07.089Z,30.61
2019-02-23T18:17:40.087Z,30.83
2019-02-23T18:20:30.649Z,31.39
2019-02-23T18:23:20.214Z,31.98
2019-02-23T18:26:09.494Z,32.17
2019-02-23T18:28:58.770Z,32.46
2019-02-23T18:31:47.980Z,33.32
2019-02-23T18:34:37.804Z,33.55
2019-02-23T18:37:08.327Z,34.38
2019-02-23T18:39:57.929Z,33.13
2019-02-23T18:42:28.260Z,33.61
2019-02-23T18:45:17.712Z,34.07
2019-02-23T18:48:07.274Z,33.93
2019-02-23T18:50:56.534Z,34.39
2019-02-23T18:53:27.470Z,34.12
2019-02-23T18:55:57.695Z,34.36
2019-02-23T18:58:47.128Z,34.97
2019-02-23T19:01:17.420Z,35.40
2019-02-23T19:04:06.640Z,35.91
2019-02-23T19:06:47.947Z,36.37
2019-02-23T19:12:15.531Z,37.24
2019-02-23T19:15:04.872Z,36.37
2019-02-23T19:17:54.336Z,34.57
2019-02-23T19:20:43.871Z,36.33
2019-02-23T19:23:33.081Z,35.38
2019-02-23T19:26:23.515Z,36.31
2019-02-23T19:28:55.656Z,36.52
2019-02-23T19:31:50.722Z,36.16
2019-02-23T19:34:20.917Z,35.79
2019-02-23T19:36:51.055Z,37.53
2019-02-23T19:39:40.269Z,37.23
2019-02-23T19:42:29.516Z,35.72
2019-02-23T19:45:19.004Z,36.00
2019-02-23T19:47:49.175Z,35.05
2019-02-23T19:50:22.916Z,35.09
2019-02-23T19:53:12.513Z,34.89
2019-02-23T19:56:01.785Z,35.34
2019-02-23T20:01:59.297Z,37.74
2019-02-23T20:04:53.965Z,40.44
2019-02-23T20:07:43.469Z,38.08
2019-02-23T20:10:32.816Z,36.21
2019-02-23T20:13:23.093Z,37.05
2019-02-23T20:15:53.246Z,37.84
2019-02-23T20:21:01.763Z,34.58
2019-02-23T20:23:33.369Z,36.84
2019-02-23T20:26:03.926Z,35.40
2019-02-23T20:28:34.037Z,36.61
2019-02-23T20:31:09.905Z,37.28
2019-02-23T20:33:42.105Z,36.65
2019-02-23T20:36:13.311Z,39.41
2019-02-23T20:39:02.669Z,36.49
2019-02-23T20:41:52.386Z,36.57
2019-02-23T20:44:41.885Z,37.68
2019-02-23T20:47:37.250Z,37.44
2019-02-23T20:53:05.441Z,40.66
2019-02-23T20:55:35.980Z,38.45
2019-02-23T20:58:27.384Z,39.27
2019-02-23T21:00:57.404Z,40.54
2019-02-23T21:03:27.621Z,37.88
2019-02-23T21:06:18.597Z,37.66
2019-02-23T21:08:49.053Z,37.21
2019-02-23T21:11:38.609Z,36.23
2019-02-23T21:14:29.657Z,36.66
2019-02-23T21:17:20.281Z,37.22
2019-02-23T21:20:09.942Z,38.23
2019-02-23T21:22:40.202Z,39.25
2019-02-23T21:25:11.304Z,39.42
2019-02-23T21:27:41.446Z,39.30
2019-02-23T21:30:11.866Z,37.65
2019-02-23T21:32:42.036Z,40.27
2019-02-23T21:35:12.300Z,39.88
2019-02-23T21:38:02.531Z,38.57
2019-02-23T21:40:32.933Z,40.14
2019-02-23T21:43:06.235Z,38.68
2019-02-23T21:45:56.109Z,37.32
2019-02-23T21:48:47.093Z,38.40
2019-02-23T21:51:17.480Z,37.94
2019-02-23T21:53:47.823Z,39.08
2019-02-23T21:56:18.178Z,39.46
2019-02-23T21:59:07.493Z,39.41
2019-02-23T22:01:38.533Z,39.79
2019-02-23T22:04:27.757Z,39.84
2019-02-23T22:07:19.186Z,40.86
2019-02-23T22:09:49.403Z,41.27
2019-02-23T22:12:38.732Z,41.70
2019-02-23T22:15:28.300Z,41.59
2019-02-23T22:17:58.815Z,43.49
2019-02-23T22:20:51.110Z,41.26
2019-02-23T22:23:40.394Z,40.30
2019-02-23T22:26:11.024Z,40.55
2019-02-23T22:29:01.496Z,41.94
2019-02-23T22:31:31.711Z,42.75
2019-02-23T22:34:02.032Z,41.22
2019-02-23T22:36:52.956Z,40.47
2019-02-23T22:39:42.449Z,40.58
2019-02-23T22:42:12.666Z,41.90
2019-02-23T22:44:42.767Z,41.17
2019-02-23T22:47:14.908Z,42.57
2019-02-23T22:49:45.131Z,40.68
2019-02-23T22:52:15.354Z,40.45
2019-02-23T22:55:05.117Z,41.06
2019-02-23T22:57:40.451Z,41.99
2019-02-23T23:03:32.588Z,43.21
2019-02-23T23:06:02.888Z,42.83
2019-02-23T23:08:33.606Z,41.60
2019-02-23T23:11:23.093Z,42.83
2019-02-23T23:13:53.392Z,44.87
2019-02-23T23:16:43.447Z,44.95
2019-02-23T23:19:13.704Z,44.33
2019-02-23T23:21:43.951Z,43.47
2019-02-23T23:24:14.127Z,42.93
2019-02-23T23:26:46.803Z,42.52
2019-02-23T23:29:35.963Z,41.39
2019-02-23T23:32:07.281Z,42.19
2019-02-23T23:37:31.945Z,41.21
2019-02-23T23:40:02.067Z,40.60
2019-02-23T23:42:32.155Z,41.77
2019-02-23T23:45:02.337Z,42.48
2019-02-23T23:47:32.763Z,42.37
2019-02-23T23:50:02.934Z,42.02
2019-02-23T23:52:34.323Z,41.77
2019-02-23T23:55:07.360Z,40.79
